Time;durP1;ratioP1;P1;durP2;ratioP2;P2;SDS_P1;SDS_P2;PMS_P1;PMS_P2;Temp;Humidity;BMP_temperature;BMP_pressure;BME280_temperature;BME280_humidity;BME280_pressure;Samples;Min_cycle;Max_cycle;Signal;HPM_P1;HPM_P2
2021/04/26 00:01:48;;;;;;;4.80;1.73;;;14.10;61.20;;;;;;5122528;27;20346;-49
2021/04/26 00:04:26;;;;;;;4.50;2.13;;;14.10;62.10;;;;;;5105596;27;20347;-47
2021/04/26 00:07:05;;;;;;;4.32;2.40;;;13.80;63.50;;;;;;5105776;27;20346;-46
2021/04/26 00:09:43;;;;;;;3.38;2.45;;;13.60;64.40;;;;;;5102469;27;20363;-47
2021/04/26 00:12:20;;;;;;;3.75;2.47;;;13.50;64.30;;;;;;5113524;27;20128;-47
2021/04/26 00:14:57;;;;;;;7.63;3.70;;;13.40;64.60;;;;;;5106323;27;20347;-48
2021/04/26 00:17:36;;;;;;;4.60;3.15;;;13.30;65.10;;;;;;5064692;28;20353;-47
2021/04/26 00:20:16;;;;;;;5.68;2.95;;;13.20;65.20;;;;;;5064261;28;20815;-49
2021/04/26 00:22:58;;;;;;;7.05;3.00;;;13.10;64.80;;;;;;5064815;28;20349;-48
2021/04/26 00:25:36;;;;;;;6.28;2.22;;;13.10;64.50;;;;;;5064525;28;20350;-47
2021/04/26 00:28:38;;;;;;;4.05;2.17;;;13.20;64.10;;;;;;5103417;27;20744;-47
2021/04/26 00:31:16;;;;;;;3.67;2.35;;;13.10;63.70;;;;;;5102684;27;20347;-47
2021/04/26 00:33:54;;;;;;;4.57;2.70;;;13.00;64.50;;;;;;5093402;27;20725;-48
2021/04/26 00:36:58;;;;;;;4.85;2.67;;;12.60;67.30;;;;;;5084564;28;20044;-49
2021/04/26 00:39:36;;;;;;;4.68;2.80;;;12.40;69.00;;;;;;5083253;27;20355;-49
2021/04/26 00:42:14;;;;;;;6.10;3.08;;;12.30;70.50;;;;;;5121466;27;20130;-50
2021/04/26 00:44:55;;;;;;;6.82;3.25;;;12.20;71.60;;;;;;5058494;28;20409;-49
2021/04/26 00:47:35;;;;;;;4.57;2.60;;;12.10;72.40;;;;;;5098657;27;20352;-52
2021/04/26 00:50:27;;;;;;;9.55;3.40;;;12.00;73.40;;;;;;5065244;28;20349;-51
2021/04/26 00:53:05;;;;;;;3.47;2.80;;;12.00;73.70;;;;;;5097754;27;20776;-48
2021/04/26 00:55:43;;;;;;;6.00;3.08;;;12.10;73.40;;;;;;5102114;27;20870;-50
2021/04/26 00:58:22;;;;;;;6.55;3.22;;;12.10;73.10;;;;;;5093617;27;20854;-49
2021/04/26 01:01:01;;;;;;;5.97;2.72;;;12.10;72.80;;;;;;5104050;27;20343;-50
2021/04/26 01:03:39;;;;;;;5.05;2.88;;;12.10;72.50;;;;;;5089522;27;20391;-49
2021/04/26 01:06:17;;;;;;;5.60;2.90;;;12.10;71.70;;;;;;4997673;28;20353;-50
2021/04/26 01:08:55;;;;;;;6.18;2.70;;;12.10;71.60;;;;;;5063091;28;20355;-49
2021/04/26 01:12:00;;;;;;;4.10;2.72;;;12.10;71.00;;;;;;5054693;28;20351;-48
2021/04/26 01:14:42;;;;;;;5.60;2.75;;;12.10;70.20;;;;;;5119542;27;20154;-50
2021/04/26 01:17:27;;;;;;;3.70;2.67;;;12.20;71.00;;;;;;5065581;28;20859;-49
2021/04/26 01:20:44;;;;;;;5.47;3.42;;;12.10;71.40;;;;;;5000121;28;20397;-50
2021/04/26 01:23:43;;;;;;;7.47;2.67;;;12.10;70.80;;;;;;5101725;27;20352;-50
2021/04/26 01:26:35;;;;;;;5.53;2.70;;;12.20;70.20;;;;;;5093380;27;20368;-46
2021/04/26 01:29:34;;;;;;;7.35;3.20;;;12.20;70.30;;;;;;5096258;27;20356;-51
2021/04/26 01:32:27;;;;;;;5.80;2.80;;;12.30;70.40;;;;;;5086494;27;20356;-49
2021/04/26 01:35:08;;;;;;;4.05;2.63;;;12.20;71.40;;;;;;5059056;28;20871;-47
2021/04/26 01:37:52;;;;;;;4.45;2.65;;;12.20;72.20;;;;;;5105221;27;20378;-53
2021/04/26 01:40:31;;;;;;;4.05;3.08;;;12.10;71.60;;;;;;5001888;28;20871;-48
2021/04/26 01:43:10;;;;;;;9.73;3.80;;;12.10;72.50;;;;;;5063849;28;20353;-47
2021/04/26 01:45:53;;;;;;;5.70;4.15;;;12.00;74.50;;;;;;5103044;27;20347;-50
2021/04/26 01:48:34;;;;;;;11.07;4.40;;;11.80;76.00;;;;;;5106258;27;20455;-49
2021/04/26 01:51:14;;;;;;;7.32;4.60;;;11.50;78.90;;;;;;5104484;27;20339;-52
2021/04/26 01:53:54;;;;;;;6.75;4.07;;;11.40;80.20;;;;;;5106406;27;20347;-49
2021/04/26 01:56:34;;;;;;;6.30;3.67;;;11.40;80.00;;;;;;5105201;27;20355;-52
2021/04/26 01:59:13;;;;;;;6.10;3.67;;;11.30;80.80;;;;;;5064831;28;21008;-48
2021/04/26 02:01:55;;;;;;;7.93;3.92;;;11.20;81.10;;;;;;5106282;27;20347;-49
2021/04/26 02:04:37;;;;;;;5.63;3.45;;;11.20;82.00;;;;;;5105737;27;20343;-50
2021/04/26 02:07:35;;;;;;;6.53;3.05;;;11.10;81.40;;;;;;5104998;27;20342;-49
2021/04/26 02:10:53;;;;;;;6.72;3.10;;;11.10;81.20;;;;;;5099723;28;20032;-48
2021/04/26 02:13:32;;;;;;;8.48;3.55;;;11.10;81.50;;;;;;5078378;28;20349;-49
2021/04/26 02:16:39;;;;;;;5.70;2.83;;;11.10;80.20;;;;;;5050890;28;20037;-47
2021/04/26 02:19:16;;;;;;;4.97;2.78;;;11.00;79.80;;;;;;5105722;27;20347;-48
2021/04/26 02:21:55;;;;;;;4.50;2.67;;;11.00;80.00;;;;;;5104796;27;20358;-48
2021/04/26 02:24:34;;;;;;;5.20;3.22;;;11.00;80.60;;;;;;5106273;27;20736;-49
2021/04/26 02:27:13;;;;;;;5.35;3.10;;;10.90;81.50;;;;;;5104997;27;20343;-50
2021/04/26 02:29:51;;;;;;;4.40;2.58;;;10.90;81.90;;;;;;5106123;27;20366;-51
2021/04/26 02:32:42;;;;;;;5.22;3.30;;;11.00;80.60;;;;;;5106662;27;20343;-55
2021/04/26 02:35:49;;;;;;;9.13;3.55;;;11.00;81.20;;;;;;5105960;27;20347;-49
2021/04/26 02:38:33;;;;;;;5.87;3.50;;;11.00;80.50;;;;;;5105996;27;20910;-53
2021/04/26 02:41:19;;;;;;;6.72;3.67;;;10.90;82.80;;;;;;5106001;27;20347;-53
2021/04/26 02:44:06;;;;;;;9.63;3.60;;;10.70;85.70;;;;;;5105900;27;20354;-52
2021/04/26 02:46:46;;;;;;;8.15;3.33;;;10.80;87.30;;;;;;5066141;28;20357;-47
2021/04/26 02:49:26;;;;;;;7.68;3.63;;;10.70;87.30;;;;;;5105874;27;20347;-52
2021/04/26 02:52:07;;;;;;;6.30;3.53;;;10.70;88.40;;;;;;5065791;28;20856;-52
2021/04/26 02:54:49;;;;;;;6.18;3.90;;;10.70;89.60;;;;;;5106418;27;20504;-53
2021/04/26 02:57:58;;;;;;;7.88;3.78;;;10.70;90.20;;;;;;5104484;28;20383;-51
2021/04/26 03:00:38;;;;;;;7.03;3.65;;;10.80;91.00;;;;;;5097037;27;20718;-51
2021/04/26 03:04:06;;;;;;;9.13;4.35;;;10.80;91.70;;;;;;5104969;28;20032;-46
2021/04/26 03:06:48;;;;;;;7.85;3.85;;;10.80;92.40;;;;;;5105415;27;20339;-52
2021/04/26 03:09:48;;;;;;;7.32;4.32;;;10.70;93.70;;;;;;5106951;27;20339;-50
2021/04/26 03:12:25;;;;;;;14.85;4.90;;;10.60;95.20;;;;;;5070269;27;20861;-51
2021/04/26 03:15:06;;;;;;;9.50;4.40;;;10.50;96.10;;;;;;5066392;28;20346;-50
2021/04/26 03:17:44;;;;;;;7.88;4.10;;;10.50;97.00;;;;;;5106586;27;20354;-54
2021/04/26 03:20:25;;;;;;;5.55;3.83;;;10.40;97.80;;;;;;5104775;27;20941;-47
2021/04/26 03:23:18;;;;;;;7.43;4.00;;;10.30;98.30;;;;;;5106975;27;20793;-52
2021/04/26 03:25:59;;;;;;;6.95;3.97;;;10.20;98.80;;;;;;5085871;28;20352;-52
2021/04/26 03:28:42;;;;;;;9.50;4.43;;;10.20;99.70;;;;;;5106533;27;20351;-55
2021/04/26 03:31:21;;;;;;;9.52;4.63;;;10.20;99.90;;;;;;5065579;28;20354;-48
2021/04/26 03:34:08;;;;;;;8.70;5.05;;;10.20;99.90;;;;;;5105131;27;20339;-52
2021/04/26 03:36:46;;;;;;;9.93;5.03;;;10.20;99.90;;;;;;5107010;27;20347;-52
2021/04/26 03:39:24;;;;;;;7.07;4.55;;;10.10;99.90;;;;;;5106829;27;20362;-52
2021/04/26 03:42:05;;;;;;;7.72;4.55;;;10.10;99.90;;;;;;5105536;27;20339;-51
2021/04/26 03:44:47;;;;;;;7.90;4.63;;;10.10;99.90;;;;;;5106910;27;20699;-52
2021/04/26 03:48:12;;;;;;;7.57;4.55;;;10.00;99.90;;;;;;5105291;28;20044;-48
2021/04/26 03:51:38;;;;;;;10.45;4.68;;;10.10;99.90;;;;;;5097917;28;20494;-48
2021/04/26 03:54:36;;;;;;;6.78;4.22;;;10.10;99.90;;;;;;5066323;28;20456;-53
2021/04/26 03:57:13;;;;;;;7.72;4.43;;;10.20;99.90;;;;;;5104793;27;20359;-50
2021/04/26 03:59:51;;;;;;;13.05;4.50;;;10.10;99.90;;;;;;5104255;27;20343;-53
2021/04/26 04:02:29;;;;;;;7.05;4.35;;;10.00;99.90;;;;;;5125458;27;20560;-48
2021/04/26 04:05:09;;;;;;;7.75;4.47;;;9.90;99.90;;;;;;5104954;27;20347;-53
2021/04/26 04:08:10;;;;;;;5.35;4.55;;;9.70;99.90;;;;;;5060851;28;20346;-50
2021/04/26 04:11:34;;;;;;;9.50;4.60;;;9.30;99.90;;;;;;5062718;28;20037;-52
2021/04/26 04:14:59;;;;;;;8.93;4.20;;;9.20;99.90;;;;;;5040014;28;20376;-51
2021/04/26 04:20:05;;;;;;;10.32;4.65;;;9.10;99.90;;;;;;5104126;27;20359;-51
2021/04/26 04:22:46;;;;;;;9.52;5.03;;;9.10;99.90;;;;;;5104982;27;20351;-47
2021/04/26 04:25:25;;;;;;;7.80;4.72;;;9.10;99.90;;;;;;5066576;28;20357;-46
2021/04/26 04:28:05;;;;;;;11.77;5.63;;;9.10;99.90;;;;;;5105066;27;20713;-54
2021/04/26 04:30:43;;;;;;;9.68;5.13;;;9.20;99.90;;;;;;5064795;28;20728;-48
2021/04/26 04:33:39;;;;;;;9.23;4.72;;;9.30;99.90;;;;;;5105789;27;20339;-49
2021/04/26 04:36:39;;;;;;;11.40;5.00;;;9.40;99.90;;;;;;5097166;27;20343;-47
2021/04/26 04:39:37;;;;;;;13.65;4.88;;;9.60;99.90;;;;;;5106529;27;20347;-48
2021/04/26 04:42:33;;;;;;;6.90;4.78;;;9.70;99.90;;;;;;5064740;28;20426;-50
2021/04/26 04:45:13;;;;;;;7.35;4.32;;;9.90;99.90;;;;;;5084695;27;20356;-50
2021/04/26 04:48:38;;;;;;;8.52;4.97;;;10.10;99.90;;;;;;5080465;28;20048;-54
2021/04/26 04:51:20;;;;;;;12.30;5.35;;;10.30;99.90;;;;;;5057539;28;20786;-53
2021/04/26 04:54:06;;;;;;;10.07;5.43;;;10.50;99.90;;;;;;5079733;27;20827;-55
2021/04/26 04:56:54;;;;;;;11.50;5.43;;;10.90;99.90;;;;;;5059475;28;20359;-52
2021/04/26 04:59:33;;;;;;;8.50;4.80;;;11.20;99.90;;;;;;5085213;27;20706;-51
2021/04/26 05:02:19;;;;;;;8.03;5.00;;;11.50;99.90;;;;;;5089158;27;20493;-53
2021/04/26 05:05:42;;;;;;;15.40;7.40;;;11.90;99.90;;;;;;5069362;28;20408;-53
2021/04/26 05:09:09;;;;;;;11.13;4.93;;;12.30;99.90;;;;;;5093837;28;20410;-51
2021/04/26 05:12:07;;;;;;;11.35;4.53;;;12.50;99.90;;;;;;5117399;27;20143;-51
2021/04/26 05:15:37;;;;;;;8.05;4.47;;;13.40;99.90;;;;;;5105134;28;20035;-48
2021/04/26 05:20:28;;;;;;;7.78;4.25;;;13.50;99.90;;;;;;5060187;28;20379;-48
2021/04/26 05:23:05;;;;;;;10.80;4.90;;;14.10;99.90;;;;;;5095525;27;20352;-48
2021/04/26 05:25:43;;;;;;;7.47;4.05;;;14.30;99.90;;;;;;5105591;27;20347;-47
2021/04/26 05:28:22;;;;;;;7.95;3.63;;;12.90;99.90;;;;;;5105721;27;20351;-47
2021/04/26 05:31:04;;;;;;;6.00;3.85;;;11.70;99.90;;;;;;5038649;28;20358;-46
2021/04/26 05:33:44;;;;;;;11.00;4.53;;;11.60;99.90;;;;;;5042254;28;20381;-49
2021/04/26 05:36:46;;;;;;;5.80;3.90;;;11.70;99.90;;;;;;5047280;28;20350;-51
2021/04/26 05:39:51;;;;;;;6.22;4.05;;;11.80;99.90;;;;;;5041812;28;20045;-55
2021/04/26 05:42:29;;;;;;;6.20;4.07;;;12.00;99.90;;;;;;5093373;27;20861;-53
2021/04/26 05:45:08;;;;;;;9.68;4.22;;;12.20;99.90;;;;;;5093631;27;20344;-49
2021/04/26 05:48:14;;;;;;;8.98;4.38;;;12.50;99.90;;;;;;5118846;27;20142;-51
2021/04/26 05:50:53;;;;;;;8.80;4.63;;;12.70;99.90;;;;;;5106284;27;20339;-48
2021/04/26 05:53:30;;;;;;;10.02;5.03;;;12.80;99.90;;;;;;5095113;27;20356;-51
2021/04/26 05:56:08;;;;;;;7.75;4.82;;;12.60;99.90;;;;;;5103853;27;20148;-48
2021/04/26 05:58:45;;;;;;;8.93;5.10;;;12.30;99.90;;;;;;5070924;27;20698;-50
2021/04/26 06:01:23;;;;;;;6.03;4.20;;;12.20;99.90;;;;;;5093767;27;20347;-51
2021/04/26 06:04:00;;;;;;;6.55;4.68;;;12.10;99.90;;;;;;5107676;27;20147;-52
2021/04/26 06:06:38;;;;;;;6.45;4.38;;;12.10;99.90;;;;;;5083479;28;20352;-51
2021/04/26 06:09:16;;;;;;;6.00;4.38;;;12.10;99.90;;;;;;5062331;27;20702;-50
2021/04/26 06:11:53;;;;;;;10.65;4.80;;;12.10;99.90;;;;;;5103933;27;20217;-47
2021/04/26 06:14:31;;;;;;;10.43;5.03;;;12.00;99.90;;;;;;5050553;28;20369;-51
2021/04/26 06:17:08;;;;;;;8.48;4.40;;;12.00;99.90;;;;;;5109582;27;20539;-49
2021/04/26 06:19:46;;;;;;;7.25;4.68;;;11.90;99.90;;;;;;5088873;27;20344;-47
2021/04/26 06:22:24;;;;;;;12.32;5.03;;;11.80;99.90;;;;;;5055434;28;20353;-47
2021/04/26 06:25:02;;;;;;;7.47;4.68;;;11.80;99.90;;;;;;5094817;27;20364;-48
2021/04/26 06:27:40;;;;;;;8.93;4.80;;;11.80;99.90;;;;;;5052714;28;20377;-49
2021/04/26 06:30:19;;;;;;;16.85;6.22;;;11.90;99.90;;;;;;5075598;27;20364;-48
2021/04/26 06:32:57;;;;;;;8.63;5.13;;;12.00;99.90;;;;;;5042146;28;20819;-47
2021/04/26 06:35:35;;;;;;;9.68;5.05;;;12.00;99.90;;;;;;4981745;28;20358;-47
2021/04/26 06:38:13;;;;;;;9.95;4.85;;;12.00;99.90;;;;;;5092370;27;20344;-50
2021/04/26 06:40:52;;;;;;;8.60;5.35;;;12.00;99.90;;;;;;5084341;27;20457;-50
2021/04/26 06:43:50;;;;;;;11.77;5.45;;;12.00;99.90;;;;;;5045459;28;20346;-46
2021/04/26 06:46:29;;;;;;;12.77;6.03;;;12.00;99.90;;;;;;5052072;28;20354;-51
2021/04/26 06:49:07;;;;;;;14.00;6.85;;;11.90;99.90;;;;;;5047144;28;20346;-48
2021/04/26 06:51:45;;;;;;;10.52;5.90;;;11.80;99.90;;;;;;5092312;27;20360;-49
2021/04/26 06:54:23;;;;;;;8.90;5.53;;;11.80;99.90;;;;;;5078372;27;20364;-51
2021/04/26 06:57:00;;;;;;;18.27;6.85;;;11.80;99.90;;;;;;5097744;27;20128;-51
2021/04/26 06:59:38;;;;;;;16.33;6.32;;;11.50;99.90;;;;;;5085494;27;20340;-52
2021/04/26 07:02:15;;;;;;;14.05;5.63;;;11.00;99.90;;;;;;5124650;27;20135;-50
2021/04/26 07:04:53;;;;;;;11.52;5.95;;;10.90;99.90;;;;;;5065869;28;20874;-46
2021/04/26 07:07:30;;;;;;;14.25;6.63;;;11.00;99.90;;;;;;5126120;27;20132;-49
2021/04/26 07:10:08;;;;;;;12.45;6.57;;;11.10;99.90;;;;;;5106355;27;20347;-54
2021/04/26 07:12:46;;;;;;;21.73;6.32;;;11.20;99.90;;;;;;5105257;27;20721;-52
2021/04/26 07:15:24;;;;;;;13.07;5.78;;;11.30;99.90;;;;;;5090546;27;20873;-50
2021/04/26 07:18:02;;;;;;;15.73;6.00;;;11.40;99.90;;;;;;5085377;27;20344;-52
2021/04/26 07:20:39;;;;;;;10.30;6.07;;;11.10;99.90;;;;;;5125533;27;20139;-53
2021/04/26 07:23:18;;;;;;;9.40;6.22;;;10.50;99.90;;;;;;5067070;28;20716;-51
2021/04/26 07:25:57;;;;;;;17.35;7.20;;;9.70;99.90;;;;;;5105320;27;20351;-50
2021/04/26 07:28:35;;;;;;;15.65;7.30;;;9.00;99.90;;;;;;5107233;27;20370;-52
2021/04/26 07:31:12;;;;;;;14.15;7.97;;;8.80;99.90;;;;;;5125950;27;20197;-48
2021/04/26 07:33:50;;;;;;;18.63;9.85;;;8.90;99.90;;;;;;5104095;27;20339;-51
2021/04/26 07:36:29;;;;;;;17.70;9.10;;;9.10;99.90;;;;;;5083914;27;20890;-51
2021/04/26 07:39:09;;;;;;;22.50;10.43;;;9.30;99.90;;;;;;5052267;28;20357;-48
2021/04/26 07:41:48;;;;;;;19.83;11.60;;;9.50;99.90;;;;;;5087807;27;20345;-47
2021/04/26 07:44:26;;;;;;;19.48;11.88;;;9.70;99.90;;;;;;5098057;27;20352;-48
2021/04/26 07:47:04;;;;;;;29.48;13.05;;;9.80;99.90;;;;;;5090836;27;20356;-46
2021/04/26 07:49:42;;;;;;;21.02;11.68;;;10.10;99.90;;;;;;5097424;27;20344;-49
2021/04/26 07:52:21;;;;;;;20.42;12.38;;;10.50;99.90;;;;;;5092140;27;20352;-46
2021/04/26 07:54:59;;;;;;;23.13;12.07;;;11.00;99.90;;;;;;5086126;27;20348;-48
2021/04/26 07:57:37;;;;;;;19.27;11.73;;;11.20;99.90;;;;;;5104659;27;20635;-48
2021/04/26 08:01:05;;;;;;;18.50;11.05;;;11.60;99.90;;;;;;5067815;27;20043;-50
2021/04/26 08:04:29;;;;;;;20.88;11.43;;;10.70;99.90;;;;;;5070906;28;20538;-46
2021/04/26 08:07:54;;;;;;;19.88;11.10;;;10.80;99.90;;;;;;5047705;28;20048;-47
2021/04/26 08:11:19;;;;;;;16.38;9.00;;;11.60;99.90;;;;;;5066711;28;20031;-49
2021/04/26 08:14:43;;;;;;;13.98;8.43;;;12.10;99.90;;;;;;5062706;28;20044;-49
2021/04/26 08:18:07;;;;;;;15.95;8.40;;;12.80;99.90;;;;;;5070644;28;20426;-47
2021/04/26 08:21:31;;;;;;;15.00;8.20;;;13.30;99.90;;;;;;5058044;28;20043;-46
2021/04/26 08:24:56;;;;;;;18.02;8.60;;;13.50;99.90;;;;;;5065153;28;20032;-47
2021/04/26 08:28:21;;;;;;;14.00;8.00;;;12.60;99.90;;;;;;5060041;28;20040;-48
2021/04/26 08:31:45;;;;;;;13.02;7.13;;;13.10;99.90;;;;;;5047104;28;20522;-47
2021/04/26 08:35:10;;;;;;;12.07;7.68;;;13.50;99.90;;;;;;5054060;28;20044;-47
2021/04/26 08:38:34;;;;;;;13.48;8.13;;;14.00;99.90;;;;;;5066125;28;20051;-47
2021/04/26 08:41:59;;;;;;;12.60;7.18;;;14.20;99.90;;;;;;5049559;28;20044;-47
2021/04/26 08:45:24;;;;;;;11.20;7.90;;;14.70;99.90;;;;;;5065839;28;20040;-46
2021/04/26 08:48:48;;;;;;;15.70;8.32;;;14.70;99.90;;;;;;5079490;28;20517;-47
2021/04/26 08:52:13;;;;;;;17.92;8.07;;;15.00;99.90;;;;;;5060815;28;20197;-46
2021/04/26 08:55:39;;;;;;;20.95;7.65;;;15.00;99.90;;;;;;5058159;28;20044;-53
2021/04/26 08:59:04;;;;;;;15.05;8.38;;;14.50;99.90;;;;;;5049458;28;20059;-47
2021/04/26 09:02:28;;;;;;;32.95;19.42;;;14.10;99.90;;;;;;5064040;28;20048;-47
2021/04/26 09:05:36;;;;;;;17.02;8.10;;;14.70;99.90;;;;;;5069579;28;20036;-50
2021/04/26 09:08:50;;;;;;;18.13;9.57;;;14.80;99.90;;;;;;5060568;28;20039;-48
2021/04/26 09:11:54;;;;;;;18.13;9.32;;;14.00;99.90;;;;;;5071597;28;20399;-48
2021/04/26 09:15:00;;;;;;;14.15;8.70;;;14.90;99.90;;;;;;5071049;28;20048;-47
2021/04/26 09:18:04;;;;;;;17.10;9.20;;;15.10;99.90;;;;;;5070066;28;20048;-47
2021/04/26 09:21:25;;;;;;;12.32;9.20;;;15.50;99.90;;;;;;5071628;28;20044;-50
2021/04/26 09:24:33;;;;;;;14.70;8.40;;;16.80;99.90;;;;;;5058626;28;20063;-48
2021/04/26 09:27:53;;;;;;;13.18;8.82;;;16.90;99.90;;;;;;5052764;28;20549;-49
2021/04/26 09:30:58;;;;;;;18.33;9.65;;;16.70;99.90;;;;;;5057529;28;20059;-47
2021/04/26 09:34:02;;;;;;;19.95;9.30;;;16.30;99.90;;;;;;5071158;28;20055;-49
2021/04/26 09:37:13;;;;;;;16.33;8.65;;;15.80;99.90;;;;;;5069673;28;20047;-47
2021/04/26 09:40:18;;;;;;;14.57;9.20;;;15.60;99.90;;;;;;5069721;28;20047;-47
2021/04/26 09:43:23;;;;;;;13.40;8.88;;;15.90;99.90;;;;;;5070608;28;20043;-47
2021/04/26 09:46:48;;;;;;;12.32;8.27;;;16.90;99.90;;;;;;5068640;28;20418;-47
2021/04/26 09:50:11;;;;;;;12.70;8.05;;;18.40;99.90;;;;;;5066995;28;20063;-51
2021/04/26 09:53:15;;;;;;;17.60;9.43;;;19.50;99.90;;;;;;5054403;28;20070;-47
2021/04/26 09:56:24;;;;;;;15.02;8.65;;;21.30;99.90;;;;;;5057612;28;20071;-47
2021/04/26 09:59:29;;;;;;;18.02;8.20;;;22.50;99.50;;;;;;5065539;28;20051;-47
2021/04/26 10:02:34;;;;;;;10.98;7.75;;;22.00;98.70;;;;;;5058229;28;20079;-47
2021/04/26 10:05:45;;;;;;;16.67;8.18;;;22.70;98.40;;;;;;5070372;28;20047;-49
2021/04/26 10:08:51;;;;;;;17.47;10.37;;;23.60;96.00;;;;;;5069746;28;20040;-47
2021/04/26 10:11:56;;;;;;;12.77;8.20;;;24.60;96.30;;;;;;5069061;28;20286;-47
2021/04/26 10:15:00;;;;;;;12.05;7.05;;;25.40;95.90;;;;;;5068385;28;20055;-51
2021/04/26 10:18:08;;;;;;;12.00;7.28;;;25.30;92.60;;;;;;5053123;28;20048;-48
2021/04/26 10:21:18;;;;;;;16.58;10.30;;;21.00;95.30;;;;;;5053062;28;20040;-50
2021/04/26 10:24:24;;;;;;;12.68;8.35;;;22.40;96.40;;;;;;5054334;28;20044;-49
2021/04/26 10:27:33;;;;;;;9.05;5.82;;;24.10;95.20;;;;;;5069631;28;20055;-48
2021/04/26 10:30:57;;;;;;;10.10;7.20;;;26.40;92.40;;;;;;5068198;28;20036;-49
2021/04/26 10:34:01;;;;;;;7.05;5.75;;;28.90;85.40;;;;;;5068149;28;20052;-49
2021/04/26 10:37:19;;;;;;;8.77;6.10;;;24.30;84.80;;;;;;5065727;28;20136;-49
2021/04/26 10:40:23;;;;;;;10.45;5.80;;;24.40;88.30;;;;;;5064233;28;20045;-48
2021/04/26 10:43:30;;;;;;;8.50;5.53;;;25.30;86.00;;;;;;5067799;28;20079;-48
2021/04/26 10:46:34;;;;;;;8.90;7.40;;;26.10;87.20;;;;;;5067249;28;20055;-47
2021/04/26 10:49:38;;;;;;;14.45;8.35;;;25.50;85.50;;;;;;5059930;28;20032;-53
2021/04/26 10:52:50;;;;;;;10.65;5.80;;;27.40;84.90;;;;;;5063011;28;20044;-49
2021/04/26 10:55:55;;;;;;;12.35;5.93;;;24.60;87.60;;;;;;5053897;28;20395;-52
2021/04/26 10:59:17;;;;;;;10.27;6.35;;;24.70;90.00;;;;;;5051004;28;20048;-53
2021/04/26 11:02:31;;;;;;;10.48;6.43;;;26.80;84.60;;;;;;5068456;28;20510;-51
2021/04/26 11:05:40;;;;;;;9.45;5.07;;;25.20;85.20;;;;;;5066978;28;20067;-48
2021/04/26 11:08:48;;;;;;;9.60;6.05;;;25.00;85.80;;;;;;5067789;28;20040;-50
2021/04/26 11:12:00;;;;;;;9.15;6.10;;;25.40;85.40;;;;;;5063263;28;20031;-51
2021/04/26 11:15:16;;;;;;;13.82;6.47;;;25.40;85.40;;;;;;5055235;28;20048;-49
2021/04/26 11:18:20;;;;;;;10.18;6.20;;;25.10;87.10;;;;;;5056109;28;20051;-49
2021/04/26 11:21:48;;;;;;;10.77;5.90;;;25.40;85.20;;;;;;5055082;28;20031;-51
2021/04/26 11:24:52;;;;;;;7.65;5.47;;;25.30;85.30;;;;;;5054215;28;20103;-50
2021/04/26 11:27:57;;;;;;;12.23;5.07;;;25.90;84.20;;;;;;5050739;28;20519;-49
2021/04/26 11:31:01;;;;;;;7.20;3.67;;;28.30;80.50;;;;;;5048247;28;20044;-52
2021/04/26 11:34:13;;;;;;;11.00;3.83;;;30.30;74.80;;;;;;5048325;28;20044;-49
2021/04/26 11:37:19;;;;;;;6.25;3.63;;;28.70;71.00;;;;;;5049048;28;20051;-54
2021/04/26 11:40:26;;;;;;;6.60;3.53;;;26.50;71.30;;;;;;5051149;28;20266;-51
2021/04/26 11:43:31;;;;;;;6.57;3.08;;;24.60;72.70;;;;;;5047423;28;20036;-49
2021/04/26 11:46:36;;;;;;;3.72;2.42;;;24.10;75.90;;;;;;5050357;28;20044;-50
2021/04/26 11:49:45;;;;;;;11.48;6.10;;;25.90;68.50;;;;;;5052747;28;20055;-50
2021/04/26 11:52:49;;;;;;;6.53;2.78;;;27.00;70.10;;;;;;5049861;28;20044;-50
2021/04/26 11:55:53;;;;;;;6.72;3.22;;;27.70;67.60;;;;;;5052680;28;20601;-54
2021/04/26 11:59:05;;;;;;;5.50;3.05;;;24.80;68.70;;;;;;5052769;28;20037;-51
2021/04/26 12:02:09;;;;;;;;;;;24.00;72.30;;;;;;5054263;28;20283;-48
2021/04/26 12:05:21;;;;;;;3.85;2.85;;;26.40;72.30;;;;;;5054282;28;20352;-50
2021/04/26 12:08:41;;;;;;;5.30;2.63;;;26.30;67.10;;;;;;5048753;28;20037;-48
2021/04/26 12:11:58;;;;;;;3.67;2.72;;;26.30;66.30;;;;;;5052106;28;20569;-53
2021/04/26 12:15:14;;;;;;;5.05;2.55;;;27.20;66.50;;;;;;5052471;28;20041;-49
2021/04/26 12:18:19;;;;;;;4.35;2.25;;;29.10;65.00;;;;;;5065912;28;20040;-50
2021/04/26 12:21:24;;;;;;;6.97;5.55;;;30.70;63.20;;;;;;5058087;28;20035;-49
2021/04/26 12:24:28;;;;;;;7.50;3.88;;;26.20;64.90;;;;;;5068967;28;20414;-49
2021/04/26 12:27:33;;;;;;;5.70;2.92;;;23.50;69.00;;;;;;5055276;28;20049;-48
2021/04/26 12:30:50;;;;;;;7.80;4.05;;;25.40;69.10;;;;;;5051055;28;20032;-48
2021/04/26 12:34:08;;;;;;;8.25;4.63;;;26.40;66.80;;;;;;5053618;28;20043;-48
2021/04/26 12:37:13;;;;;;;10.15;5.20;;;24.10;67.80;;;;;;5049091;28;20036;-50
2021/04/26 12:40:23;;;;;;;5.20;3.70;;;24.00;69.40;;;;;;5054175;28;20683;-49
2021/04/26 12:43:39;;;;;;;7.55;5.93;;;25.70;69.00;;;;;;5054573;28;20780;-49
2021/04/26 12:46:43;;;;;;;8.15;4.70;;;23.80;69.50;;;;;;5061373;28;20414;-52
2021/04/26 12:50:09;;;;;;;6.60;3.55;;;23.10;72.20;;;;;;5068598;28;20047;-52
2021/04/26 12:53:17;;;;;;;4.15;3.03;;;25.20;68.40;;;;;;5058901;28;20402;-52
2021/04/26 12:56:22;;;;;;;6.22;3.65;;;26.20;68.20;;;;;;5068297;28;20118;-49
2021/04/26 12:59:46;;;;;;;4.15;2.95;;;25.20;65.30;;;;;;5068122;28;20530;-51
2021/04/26 13:02:50;;;;;;;6.95;3.83;;;26.60;66.80;;;;;;5069844;28;20391;-51
2021/04/26 13:06:06;;;;;;;7.45;3.70;;;24.50;62.80;;;;;;5060213;28;20067;-52
2021/04/26 13:09:14;;;;;;;5.10;2.70;;;23.90;68.10;;;;;;5068908;28;20040;-50
2021/04/26 13:12:26;;;;;;;4.68;2.92;;;25.40;66.60;;;;;;5055205;28;20041;-50
2021/04/26 13:15:32;;;;;;;5.30;2.72;;;23.90;63.70;;;;;;5057751;28;20045;-47
2021/04/26 13:18:47;;;;;;;8.10;3.28;;;23.80;65.70;;;;;;5063505;28;20040;-48
2021/04/26 13:21:51;;;;;;;7.15;3.45;;;23.90;67.50;;;;;;5064277;28;20242;-50
2021/04/26 13:24:56;;;;;;;5.20;2.50;;;25.10;66.00;;;;;;5061746;28;20059;-50
2021/04/26 13:28:01;;;;;;;6.35;2.60;;;25.90;62.60;;;;;;5060822;28;20441;-47
2021/04/26 13:31:06;;;;;;;4.85;2.97;;;25.60;61.40;;;;;;5073457;28;20068;-49
2021/04/26 13:34:10;;;;;;;5.22;2.75;;;24.90;62.30;;;;;;5058718;28;20041;-49
2021/04/26 13:37:16;;;;;;;3.45;2.40;;;25.70;64.30;;;;;;5052941;28;20040;-47
2021/04/26 13:40:20;;;;;;;3.70;2.75;;;25.30;60.60;;;;;;5065532;28;20044;-48
2021/04/26 13:43:25;;;;;;;6.28;3.08;;;24.60;63.20;;;;;;5051671;28;20442;-52
2021/04/26 13:46:29;;;;;;;5.57;3.05;;;23.20;65.10;;;;;;5058999;28;20418;-52
2021/04/26 13:49:33;;;;;;;7.78;3.20;;;22.90;64.90;;;;;;5059775;28;20047;-51
2021/04/26 13:52:37;;;;;;;4.45;2.60;;;22.70;64.80;;;;;;5067579;28;20036;-48
2021/04/26 13:55:42;;;;;;;4.35;2.45;;;23.40;66.80;;;;;;5061743;28;20071;-48
2021/04/26 13:58:46;;;;;;;4.88;2.85;;;24.00;65.10;;;;;;5052493;28;20048;-47
2021/04/26 14:01:51;;;;;;;11.90;3.33;;;24.00;64.30;;;;;;5058120;28;20044;-48
2021/04/26 14:04:55;;;;;;;5.57;2.90;;;23.50;63.40;;;;;;5061790;28;20055;-50
2021/04/26 14:08:00;;;;;;;5.28;2.47;;;23.20;65.20;;;;;;5058142;28;20040;-47
2021/04/26 14:11:04;;;;;;;3.50;2.40;;;23.20;65.20;;;;;;5051376;28;20052;-51
2021/04/26 14:14:08;;;;;;;3.13;2.20;;;24.50;65.70;;;;;;5063446;28;20039;-48
2021/04/26 14:17:12;;;;;;;5.78;2.58;;;24.40;63.80;;;;;;5054212;28;20040;-48
2021/04/26 14:20:17;;;;;;;4.03;2.50;;;24.60;64.70;;;;;;5050580;28;20041;-50
2021/04/26 14:23:21;;;;;;;4.55;2.90;;;24.50;63.60;;;;;;5059364;28;20507;-49
2021/04/26 14:26:26;;;;;;;6.25;2.60;;;23.60;63.30;;;;;;5064811;28;20041;-48
2021/04/26 14:29:30;;;;;;;4.38;2.83;;;22.80;65.80;;;;;;5066048;28;20045;-48
2021/04/26 14:32:35;;;;;;;6.45;3.00;;;23.30;66.00;;;;;;5069902;28;20044;-48
2021/04/26 14:35:40;;;;;;;3.78;2.78;;;22.70;65.10;;;;;;5069636;28;20036;-47
2021/04/26 14:38:45;;;;;;;7.40;2.95;;;22.10;67.30;;;;;;5070590;28;20041;-48
2021/04/26 14:41:49;;;;;;;8.95;3.13;;;22.40;66.20;;;;;;5070074;28;20549;-47
2021/04/26 14:44:53;;;;;;;4.85;2.65;;;22.70;66.70;;;;;;5069492;28;20498;-48
2021/04/26 14:47:58;;;;;;;3.92;2.63;;;23.00;67.40;;;;;;5070887;28;20042;-50
2021/04/26 14:51:03;;;;;;;7.28;3.85;;;23.10;65.90;;;;;;5069903;28;20048;-47
2021/04/26 14:54:07;;;;;;;5.93;3.58;;;22.90;66.40;;;;;;5069361;28;20040;-47
2021/04/26 14:57:12;;;;;;;7.28;3.90;;;22.80;66.40;;;;;;5069144;28;20051;-47
2021/04/26 15:00:19;;;;;;;6.40;3.42;;;23.20;65.80;;;;;;5069625;28;20095;-47
2021/04/26 15:03:23;;;;;;;6.32;3.00;;;23.20;66.90;;;;;;5068745;28;20415;-47
2021/04/26 15:06:27;;;;;;;4.38;2.88;;;23.00;67.60;;;;;;5068538;28;20045;-48
2021/04/26 15:09:31;;;;;;;5.65;2.70;;;22.30;64.50;;;;;;5069790;28;20040;-48
2021/04/26 15:12:36;;;;;;;4.30;2.90;;;22.00;65.80;;;;;;5068486;28;20036;-47
2021/04/26 15:15:45;;;;;;;4.93;2.70;;;22.20;69.30;;;;;;5068365;28;20040;-47
2021/04/26 15:18:50;;;;;;;5.18;2.78;;;21.80;66.80;;;;;;5069976;28;20529;-49